createdAt,value
2022-11-23T00:00:24.875Z,98089.91
2022-11-23T00:02:55.844Z,98090.09
2022-11-23T00:05:23.116Z,98085.34
2022-11-23T00:07:50.363Z,98082.19
2022-11-23T00:10:17.855Z,98097.16
2022-11-23T00:12:45.127Z,98083.66
2022-11-23T00:15:13.040Z,98090.41
2022-11-23T00:17:40.575Z,98099.66
2022-11-23T00:20:08.424Z,98099.16
2022-11-23T00:22:35.721Z,98097.63
2022-11-23T00:25:03.372Z,98084.72
2022-11-23T00:27:30.601Z,98097.41
2022-11-23T00:29:57.771Z,98090.75
2022-11-23T00:32:25.691Z,98080.50
2022-11-23T00:34:52.912Z,98082.78
2022-11-23T00:37:20.101Z,98082.91
2022-11-23T00:39:47.590Z,98087.75
2022-11-23T00:42:14.794Z,98081.47
2022-11-23T00:44:41.989Z,98088.34
2022-11-23T00:47:09.458Z,98080.72
2022-11-23T00:49:36.633Z,98091.00
2022-11-23T00:52:03.901Z,98079.66
2022-11-23T00:54:31.707Z,98083.16
2022-11-23T00:56:58.909Z,98088.72
2022-11-23T00:59:26.209Z,98076.91
2022-11-23T01:01:54.386Z,98077.44
2022-11-23T01:04:21.613Z,98071.00
2022-11-23T01:06:48.848Z,98089.78
2022-11-23T01:09:17.928Z,98077.84
2022-11-23T01:11:45.224Z,98060.53
2022-11-23T01:14:12.509Z,98077.84
2022-11-23T01:16:40.577Z,98062.69
2022-11-23T01:19:11.547Z,98065.56
2022-11-23T01:21:39.375Z,98076.97
2022-11-23T01:24:12.257Z,98062.81
2022-11-23T01:26:41.135Z,98059.41
2022-11-23T01:29:08.693Z,98057.59
2022-11-23T01:31:41.810Z,98047.59
2022-11-23T01:34:14.552Z,98055.47
2022-11-23T01:36:41.960Z,98042.22
2022-11-23T01:39:10.364Z,98054.12
2022-11-23T01:41:39.268Z,98046.97
2022-11-23T01:44:21.627Z,98044.94
2022-11-23T01:46:53.108Z,98047.25
2022-11-23T01:49:20.420Z,98034.59
2022-11-23T01:51:48.613Z,98037.84
2022-11-23T01:54:22.551Z,98041.91
2022-11-23T01:56:51.129Z,98037.47
2022-11-23T01:59:18.876Z,98029.38
2022-11-23T02:01:46.170Z,98038.81
2022-11-23T02:04:16.654Z,98035.09
2022-11-23T02:06:45.167Z,98030.09
2022-11-23T02:09:12.362Z,98031.09
2022-11-23T02:11:39.909Z,98032.91
2022-11-23T02:14:07.400Z,98032.91
2022-11-23T02:16:34.615Z,98036.28
2022-11-23T02:19:01.802Z,98044.34
2022-11-23T02:21:29.396Z,98037.13
2022-11-23T02:24:09.047Z,98041.09
2022-11-23T02:26:37.118Z,98036.75
2022-11-23T02:29:12.188Z,98054.38
2022-11-23T02:31:39.688Z,98044.38
2022-11-23T02:34:06.966Z,98032.78
2022-11-23T02:36:39.903Z,98029.97
2022-11-23T02:39:08.971Z,98033.72
2022-11-23T02:41:37.546Z,98033.25
2022-11-23T02:44:04.845Z,98037.94
2022-11-23T02:46:32.293Z,98037.88
2022-11-23T02:48:59.494Z,98031.94
2022-11-23T02:51:27.645Z,98028.44
2022-11-23T02:53:55.104Z,98028.09
2022-11-23T02:56:22.306Z,98028.56
2022-11-23T02:58:49.691Z,98023.03
2022-11-23T03:01:18.318Z,98041.72
2022-11-23T03:03:46.698Z,98049.66
2022-11-23T03:06:14.020Z,98039.19
2022-11-23T03:08:41.889Z,98042.78
2022-11-23T03:11:09.471Z,98031.09
2022-11-23T03:13:36.674Z,98035.94
2022-11-23T03:16:04.314Z,98026.28
2022-11-23T03:18:31.570Z,98019.66
2022-11-23T03:21:05.369Z,98018.69
2022-11-23T03:23:32.846Z,98021.38
2022-11-23T03:26:00.930Z,98038.09
2022-11-23T03:28:28.558Z,98037.00
2022-11-23T03:30:56.578Z,98032.19
2022-11-23T03:33:24.242Z,98037.59
2022-11-23T03:35:52.032Z,98029.28
2022-11-23T03:38:19.749Z,98028.94
2022-11-23T03:40:47.060Z,98034.37
2022-11-23T03:43:14.420Z,98030.84
2022-11-23T03:45:42.416Z,98034.81
2022-11-23T03:48:09.599Z,98025.69
2022-11-23T03:50:36.823Z,98023.12
2022-11-23T03:53:04.388Z,98022.53
2022-11-23T03:55:31.978Z,98041.81
2022-11-23T03:57:59.761Z,98040.47
2022-11-23T04:00:27.946Z,98032.19
2022-11-23T04:02:55.479Z,98032.91
2022-11-23T04:05:27.039Z,98031.09
2022-11-23T04:08:01.008Z,98024.72
2022-11-23T04:10:28.324Z,98018.22
2022-11-23T04:12:58.488Z,98025.00
2022-11-23T04:15:25.949Z,98041.72
2022-11-23T04:17:54.077Z,98035.44
2022-11-23T04:20:21.247Z,98036.53
2022-11-23T04:22:49.002Z,98039.53
2022-11-23T04:25:16.533Z,98028.44
2022-11-23T04:27:43.775Z,98024.63
2022-11-23T04:30:11.536Z,98041.47
2022-11-23T04:32:38.863Z,98037.13
2022-11-23T04:35:06.201Z,98041.94
2022-11-23T04:37:33.942Z,98032.69
2022-11-23T04:40:01.833Z,98035.94
2022-11-23T04:42:29.927Z,98051.94
2022-11-23T04:44:58.027Z,98054.34
2022-11-23T04:47:25.455Z,98053.88
2022-11-23T04:49:53.091Z,98042.78
2022-11-23T04:52:20.599Z,98045.09
2022-11-23T04:54:47.865Z,98031.38
2022-11-23T04:57:15.259Z,98039.66
2022-11-23T04:59:42.907Z,98048.69
2022-11-23T05:02:10.386Z,98037.25
2022-11-23T05:04:38.292Z,98037.72
2022-11-23T05:07:06.034Z,98041.66
2022-11-23T05:09:34.657Z,98043.00
2022-11-23T05:12:02.375Z,98055.94
2022-11-23T05:14:31.791Z,98045.81
2022-11-23T05:16:59.140Z,98034.97
2022-11-23T05:19:26.509Z,98041.94
2022-11-23T05:21:54.196Z,98041.94
2022-11-23T05:24:22.713Z,98043.44
2022-11-23T05:26:56.086Z,98051.34
2022-11-23T05:29:23.937Z,98049.66
2022-11-23T05:31:51.240Z,98035.66
2022-11-23T05:34:18.590Z,98040.28
2022-11-23T05:36:46.124Z,98036.53
2022-11-23T05:39:13.761Z,98029.56
2022-11-23T05:41:41.028Z,98023.88
2022-11-23T05:44:09.326Z,98022.53
2022-11-23T05:46:36.530Z,98036.16
2022-11-23T05:49:03.746Z,98029.00
2022-11-23T05:51:33.040Z,98019.47
2022-11-23T05:54:01.213Z,98026.22
2022-11-23T05:56:28.923Z,98033.25
2022-11-23T05:58:56.838Z,98037.88
2022-11-23T06:01:24.237Z,98024.31
2022-11-23T06:03:53.048Z,98032.22
2022-11-23T06:06:20.477Z,98032.28
2022-11-23T06:08:49.191Z,98025.94
2022-11-23T06:11:17.147Z,98036.84
2022-11-23T06:13:46.559Z,98050.81
2022-11-23T06:16:13.760Z,98049.34
2022-11-23T06:18:42.477Z,98057.72
2022-11-23T06:21:09.885Z,98060.78
2022-11-23T06:23:37.986Z,98063.47
2022-11-23T06:26:06.434Z,98060.88
2022-11-23T06:28:35.979Z,98062.91
2022-11-23T06:31:04.098Z,98055.22
2022-11-23T06:33:31.719Z,98063.03
2022-11-23T06:36:00.355Z,98067.22
2022-11-23T06:38:29.013Z,98061.12
2022-11-23T06:41:00.318Z,98066.41
2022-11-23T06:43:28.309Z,98068.22
2022-11-23T06:45:55.621Z,98057.50
2022-11-23T06:48:23.581Z,98061.38
2022-11-23T06:50:51.159Z,98057.84
2022-11-23T06:53:18.872Z,98053.25
2022-11-23T06:55:46.407Z,98058.34
2022-11-23T06:58:13.917Z,98059.78
2022-11-23T07:00:41.202Z,98069.00
2022-11-23T07:03:24.754Z,98073.94
2022-11-23T07:05:52.852Z,98068.44
2022-11-23T07:08:20.926Z,98067.00
2022-11-23T07:10:48.137Z,98076.53
2022-11-23T07:13:15.820Z,98071.53
2022-11-23T07:15:43.453Z,98076.12
2022-11-23T07:18:11.171Z,98077.81
2022-11-23T07:20:40.087Z,98075.53
2022-11-23T07:23:08.354Z,98078.44
2022-11-23T07:25:36.061Z,98082.31
2022-11-23T07:28:04.044Z,98078.44
2022-11-23T07:30:32.494Z,98086.66
2022-11-23T07:33:03.534Z,98086.03
2022-11-23T07:35:32.807Z,98092.59
2022-11-23T07:38:00.446Z,98089.63
2022-11-23T07:40:27.779Z,98103.81
2022-11-23T07:43:01.435Z,98087.97
2022-11-23T07:45:29.276Z,98094.00
2022-11-23T07:48:00.540Z,98094.63
2022-11-23T07:50:28.263Z,98097.66
2022-11-23T07:52:55.799Z,98110.37
2022-11-23T07:55:23.471Z,98103.69
2022-11-23T07:57:54.359Z,98108.59
2022-11-23T08:00:22.272Z,98113.19
2022-11-23T08:03:19.236Z,98112.69
2022-11-23T08:05:37.060Z,98123.34
2022-11-23T08:08:04.656Z,98120.00
2022-11-23T08:10:31.883Z,98117.03
2022-11-23T08:13:03.454Z,98120.13
2022-11-23T08:15:30.979Z,98129.75
2022-11-23T08:17:58.661Z,98118.13
2022-11-23T08:20:26.138Z,98109.41
2022-11-23T08:22:55.917Z,98119.44
2022-11-23T08:25:23.703Z,98125.22
2022-11-23T08:27:57.736Z,98125.34
2022-11-23T08:30:25.367Z,98125.41
2022-11-23T08:32:52.759Z,98125.94
2022-11-23T08:35:20.338Z,98133.37
2022-11-23T08:37:47.811Z,98119.63
2022-11-23T08:40:17.408Z,98123.25
2022-11-23T08:42:47.171Z,98131.44
2022-11-23T08:45:14.662Z,98125.25
2022-11-23T08:47:41.814Z,98129.53
2022-11-23T08:50:09.297Z,98131.56
2022-11-23T08:52:36.800Z,98127.72
2022-11-23T08:55:04.288Z,98139.16
2022-11-23T08:57:31.571Z,98137.16
2022-11-23T08:59:59.016Z,98142.38
2022-11-23T09:02:26.231Z,98133.97
2022-11-23T09:04:53.461Z,98139.72
2022-11-23T09:07:21.063Z,98148.16
2022-11-23T09:09:48.304Z,98148.91
2022-11-23T09:12:15.508Z,98144.78
2022-11-23T09:14:43.332Z,98151.13
2022-11-23T09:17:10.538Z,98151.59
2022-11-23T09:19:37.747Z,98155.63
2022-11-23T09:22:05.238Z,98150.94
2022-11-23T09:24:32.812Z,98153.97
2022-11-23T09:27:00.270Z,98148.72
2022-11-23T09:29:28.443Z,98146.44
2022-11-23T09:31:55.762Z,98144.03
2022-11-23T09:34:23.162Z,98147.56
2022-11-23T09:36:50.660Z,98138.41
2022-11-23T09:39:17.879Z,98146.16
2022-11-23T09:42:03.758Z,98142.16
2022-11-23T09:44:33.868Z,98142.78
2022-11-23T09:47:01.391Z,98138.41
2022-11-23T09:49:31.539Z,98135.63
2022-11-23T09:51:59.027Z,98139.13
2022-11-23T09:54:33.471Z,98132.25
2022-11-23T09:57:02.107Z,98127.06
2022-11-23T09:59:32.559Z,98129.12
2022-11-23T10:01:59.851Z,98122.66
2022-11-23T10:04:29.351Z,98125.06
2022-11-23T10:07:18.792Z,98129.12
2022-11-23T10:10:05.253Z,98134.72
2022-11-23T10:12:51.501Z,98123.69
2022-11-23T10:15:19.056Z,98133.25
2022-11-23T10:17:56.708Z,98123.66
2022-11-23T10:20:42.962Z,98125.06
2022-11-23T10:23:14.271Z,98129.31
2022-11-23T10:25:47.005Z,98127.44
2022-11-23T10:28:15.129Z,98130.31
2022-11-23T10:30:43.280Z,98122.53
2022-11-23T10:33:19.536Z,98119.91
2022-11-23T10:35:47.046Z,98117.09
2022-11-23T10:38:19.364Z,98121.16
2022-11-23T10:40:55.297Z,98115.81
2022-11-23T10:43:23.377Z,98114.44
2022-11-23T10:45:53.649Z,98119.75
2022-11-23T10:48:35.886Z,98126.72
2022-11-23T10:51:24.145Z,98117.00
2022-11-23T10:53:57.648Z,98118.50
2022-11-23T10:56:28.595Z,98119.22
2022-11-23T10:58:55.940Z,98120.34
2022-11-23T11:01:24.534Z,98125.13
2022-11-23T11:03:55.605Z,98115.66
2022-11-23T11:06:27.057Z,98116.81
2022-11-23T11:08:55.414Z,98111.03
2022-11-23T11:11:29.429Z,98107.69
2022-11-23T11:14:16.453Z,98104.31
2022-11-23T11:16:50.408Z,98111.00
2022-11-23T11:19:36.202Z,98108.09
2022-11-23T11:22:22.235Z,98107.97
2022-11-23T11:24:49.681Z,98108.97
2022-11-23T11:27:17.745Z,98098.00
2022-11-23T11:29:44.962Z,98111.63
2022-11-23T11:32:27.884Z,98112.28
2022-11-23T11:35:01.139Z,98116.53
2022-11-23T11:37:39.352Z,98106.13
2022-11-23T11:40:25.438Z,98114.25
2022-11-23T11:43:06.229Z,98111.03
2022-11-23T11:45:36.822Z,98114.28
2022-11-23T11:48:23.513Z,98115.47
2022-11-23T11:50:57.417Z,98120.41
2022-11-23T11:53:28.866Z,98113.59
2022-11-23T11:55:57.680Z,98127.13
2022-11-23T11:58:26.371Z,98121.66
2022-11-23T12:01:07.646Z,98123.75
2022-11-23T12:03:35.159Z,98129.91
2022-11-23T12:06:13.558Z,98124.06
2022-11-23T12:08:44.858Z,98127.31
2022-11-23T12:11:12.105Z,98132.41
2022-11-23T12:13:40.647Z,98129.50
2022-11-23T12:16:08.151Z,98130.94
2022-11-23T12:19:07.958Z,98129.66
2022-11-23T12:21:41.448Z,98130.44
2022-11-23T12:24:12.936Z,98127.59
2022-11-23T12:26:55.795Z,98124.28
2022-11-23T12:29:41.959Z,98121.06
2022-11-23T12:32:28.280Z,98119.63
2022-11-23T12:35:05.273Z,98113.38
2022-11-23T12:37:41.802Z,98114.69
2022-11-23T12:40:14.800Z,98113.78
2022-11-23T12:42:43.047Z,98108.03
2022-11-23T12:45:13.360Z,98109.09
2022-11-23T12:47:49.803Z,98107.72
2022-11-23T12:50:17.741Z,98109.34
2022-11-23T12:53:03.576Z,98113.44
2022-11-23T12:55:31.059Z,98115.56
2022-11-23T12:58:16.937Z,98114.59
2022-11-23T13:00:49.186Z,98121.38
2022-11-23T13:03:39.722Z,98118.50
2022-11-23T13:06:07.164Z,98123.78
2022-11-23T13:08:53.123Z,98124.50
2022-11-23T13:11:34.441Z,98128.72
2022-11-23T13:14:10.693Z,98126.34
2022-11-23T13:16:41.319Z,98122.38
2022-11-23T13:19:17.856Z,98130.09
2022-11-23T13:21:46.057Z,98129.12
2022-11-23T13:24:25.547Z,98129.22
2022-11-23T13:27:31.518Z,98143.53
2022-11-23T13:30:01.251Z,98126.28
2022-11-23T13:32:39.349Z,98138.12
2022-11-23T13:35:18.808Z,98140.59
2022-11-23T13:38:00.249Z,98136.00
2022-11-23T13:40:27.452Z,98142.50
2022-11-23T13:43:02.094Z,98142.31
2022-11-23T13:45:31.100Z,98143.72
2022-11-23T13:48:04.764Z,98142.19
2022-11-23T13:50:32.142Z,98139.00
2022-11-23T13:52:59.718Z,98140.34
2022-11-23T13:55:39.224Z,98135.47
2022-11-23T13:58:22.730Z,98138.69
2022-11-23T14:00:57.133Z,98127.53
2022-11-23T14:03:49.306Z,98139.72
2022-11-23T14:06:29.032Z,98144.03
2022-11-23T14:08:59.848Z,98149.37
2022-11-23T14:11:27.086Z,98144.22
2022-11-23T14:13:55.947Z,98151.19
2022-11-23T14:16:33.361Z,98148.25
2022-11-23T14:19:19.390Z,98150.63
2022-11-23T14:21:52.710Z,98150.66
2022-11-23T14:24:38.824Z,98148.31
2022-11-23T14:27:45.762Z,98149.13
2022-11-23T14:30:25.041Z,98151.34
2022-11-23T14:33:03.612Z,98161.22
2022-11-23T14:35:50.075Z,98160.06
2022-11-23T14:38:33.820Z,98161.59
2022-11-23T14:41:13.150Z,98160.91
2022-11-23T14:43:41.438Z,98165.25
2022-11-23T14:46:14.170Z,98174.16
2022-11-23T14:48:41.820Z,98167.78
2022-11-23T14:51:12.982Z,98169.28
2022-11-23T14:53:58.926Z,98161.38
2022-11-23T14:56:33.186Z,98168.59
2022-11-23T14:59:17.659Z,98166.09
2022-11-23T15:01:51.870Z,98165.63
2022-11-23T15:04:25.484Z,98167.97
2022-11-23T15:06:54.343Z,98168.31
2022-11-23T15:09:27.581Z,98177.16
2022-11-23T15:12:05.669Z,98174.81
2022-11-23T15:14:33.404Z,98170.13
2022-11-23T15:17:14.963Z,98183.06
2022-11-23T15:19:42.865Z,98179.69
2022-11-23T15:22:16.735Z,98187.25
2022-11-23T15:24:43.970Z,98195.81
2022-11-23T15:27:15.292Z,98187.44
2022-11-23T15:29:53.024Z,98193.31
2022-11-23T15:32:30.723Z,98191.62
2022-11-23T15:35:00.220Z,98190.47
2022-11-23T15:37:27.748Z,98195.84
2022-11-23T15:39:55.191Z,98197.31
2022-11-23T15:42:22.892Z,98201.03
2022-11-23T15:44:52.011Z,98200.53
2022-11-23T15:47:27.550Z,98205.22
2022-11-23T15:49:58.766Z,98206.91
2022-11-23T15:52:27.123Z,98206.72
2022-11-23T15:54:54.640Z,98210.25
2022-11-23T15:57:22.750Z,98205.03
2022-11-23T15:59:59.467Z,98216.78
2022-11-23T16:02:28.906Z,98222.19
2022-11-23T16:05:05.713Z,98225.87
2022-11-23T16:07:33.068Z,98223.00
2022-11-23T16:10:19.276Z,98229.75
2022-11-23T16:12:50.650Z,98235.63
2022-11-23T16:15:41.540Z,98231.06
2022-11-23T16:18:17.706Z,98233.09
2022-11-23T16:20:45.556Z,98238.16
2022-11-23T16:23:14.691Z,98239.47
2022-11-23T16:25:41.970Z,98241.69
2022-11-23T16:28:22.324Z,98251.91
2022-11-23T16:30:49.622Z,98246.56
2022-11-23T16:33:17.554Z,98250.00
2022-11-23T16:35:45.376Z,98248.03
2022-11-23T16:38:12.816Z,98260.47
2022-11-23T16:40:40.658Z,98250.38
2022-11-23T16:43:09.053Z,98239.13
2022-11-23T16:45:37.172Z,98243.28
2022-11-23T16:48:06.519Z,98249.13
2022-11-23T16:50:34.272Z,98249.31
2022-11-23T16:53:02.331Z,98250.19
2022-11-23T16:55:29.909Z,98253.25
2022-11-23T16:57:57.311Z,98252.38
2022-11-23T17:00:24.628Z,98251.66
2022-11-23T17:02:52.421Z,98255.34
2022-11-23T17:05:20.215Z,98254.34
2022-11-23T17:07:47.476Z,98249.53
2022-11-23T17:10:15.098Z,98258.59
2022-11-23T17:12:52.484Z,98251.88
2022-11-23T17:15:20.467Z,98255.41
2022-11-23T17:17:47.707Z,98255.84
2022-11-23T17:20:15.451Z,98256.91
2022-11-23T17:22:43.447Z,98260.28
2022-11-23T17:25:15.056Z,98255.41
2022-11-23T17:27:44.971Z,98261.84
2022-11-23T17:30:17.420Z,98262.13
2022-11-23T17:32:45.023Z,98261.09
2022-11-23T17:35:12.402Z,98260.28
2022-11-23T17:37:39.680Z,98263.28
2022-11-23T17:40:16.887Z,98268.53
2022-11-23T17:42:44.304Z,98255.47
2022-11-23T17:45:12.398Z,98257.78
2022-11-23T17:47:39.832Z,98262.31
2022-11-23T17:50:07.568Z,98269.34
2022-11-23T17:52:35.066Z,98261.44
2022-11-23T17:55:02.295Z,98259.50
2022-11-23T17:57:29.567Z,98272.63
2022-11-23T18:00:01.874Z,98273.13
2022-11-23T18:02:39.059Z,98272.31
2022-11-23T18:05:06.882Z,98272.88
2022-11-23T18:07:34.240Z,98270.87
2022-11-23T18:10:01.844Z,98272.34
2022-11-23T18:12:29.374Z,98273.75
2022-11-23T18:14:56.866Z,98269.00
2022-11-23T18:17:24.308Z,98267.19
2022-11-23T18:19:51.921Z,98268.72
2022-11-23T18:22:19.235Z,98269.22
2022-11-23T18:24:46.458Z,98270.37
2022-11-23T18:27:13.960Z,98265.16
2022-11-23T18:29:41.295Z,98267.19
2022-11-23T18:32:08.974Z,98263.00
2022-11-23T18:34:36.733Z,98269.88
2022-11-23T18:37:05.445Z,98271.06
2022-11-23T18:39:33.056Z,98276.09
2022-11-23T18:42:05.510Z,98272.25
2022-11-23T18:44:33.319Z,98276.75
2022-11-23T18:47:01.000Z,98274.44
2022-11-23T18:49:28.404Z,98281.28
2022-11-23T18:51:55.831Z,98275.91
2022-11-23T18:54:23.482Z,98280.59
2022-11-23T18:56:50.680Z,98289.34
2022-11-23T18:59:56.294Z,98284.84
2022-11-23T19:02:08.959Z,98290.41
2022-11-23T19:04:36.478Z,98284.84
2022-11-23T19:07:03.709Z,98284.66
2022-11-23T19:09:31.463Z,98280.28
2022-11-23T19:11:59.141Z,98287.34
2022-11-23T19:14:26.407Z,98295.75
2022-11-23T19:16:54.084Z,98291.88
2022-11-23T19:19:21.540Z,98296.41
2022-11-23T19:21:48.884Z,98295.41
2022-11-23T19:24:16.354Z,98294.72
2022-11-23T19:26:43.695Z,98306.84
2022-11-23T19:29:11.100Z,98305.16
2022-11-23T19:31:38.828Z,98297.09
2022-11-23T19:34:06.377Z,98304.81
2022-11-23T19:36:36.429Z,98301.09
2022-11-23T19:39:05.093Z,98305.47
2022-11-23T19:41:32.345Z,98306.97
2022-11-23T19:44:00.069Z,98309.03
2022-11-23T19:46:28.044Z,98308.50
2022-11-23T19:48:57.351Z,98312.91
2022-11-23T19:51:25.052Z,98317.41
2022-11-23T19:53:54.717Z,98321.28
2022-11-23T19:56:24.196Z,98320.28
2022-11-23T19:58:52.254Z,98314.59
2022-11-23T20:01:20.748Z,98322.56
2022-11-23T20:03:49.104Z,98328.00
2022-11-23T20:06:17.451Z,98322.56
2022-11-23T20:08:44.933Z,98328.47
2022-11-23T20:11:13.680Z,98318.06
2022-11-23T20:13:41.117Z,98328.91
2022-11-23T20:16:12.888Z,98326.00
2022-11-23T20:18:43.924Z,98333.09
2022-11-23T20:21:17.796Z,98331.59
2022-11-23T20:23:45.771Z,98340.47
2022-11-23T20:26:14.682Z,98336.16
2022-11-23T20:28:42.398Z,98345.66
2022-11-23T20:31:20.143Z,98345.25
2022-11-23T20:33:50.630Z,98338.91
2022-11-23T20:36:19.528Z,98350.28
2022-11-23T20:38:47.181Z,98344.25
2022-11-23T20:41:15.391Z,98350.09
2022-11-23T20:43:43.149Z,98345.94
2022-11-23T20:46:10.665Z,98357.69
2022-11-23T20:48:39.302Z,98360.81
2022-11-23T20:51:10.379Z,98362.91
2022-11-23T20:53:38.306Z,98365.53
2022-11-23T20:56:06.594Z,98366.38
2022-11-23T20:58:35.140Z,98367.78
2022-11-23T21:01:13.421Z,98368.09
2022-11-23T21:03:41.415Z,98364.16
2022-11-23T21:06:10.730Z,98369.31
2022-11-23T21:08:38.188Z,98370.09
2022-11-23T21:11:32.112Z,98372.34
2022-11-23T21:14:15.608Z,98367.44
2022-11-23T21:16:55.751Z,98371.00
2022-11-23T21:19:24.090Z,98371.78
2022-11-23T21:21:51.843Z,98377.87
2022-11-23T21:24:19.064Z,98373.56
2022-11-23T21:26:46.439Z,98372.88
2022-11-23T21:29:14.156Z,98377.66
2022-11-23T21:31:42.149Z,98374.09
2022-11-23T21:34:12.292Z,98380.69
2022-11-23T21:36:39.836Z,98382.28
2022-11-23T21:39:07.909Z,98384.22
2022-11-23T21:41:35.644Z,98382.66
2022-11-23T21:44:03.652Z,98390.34
2022-11-23T21:46:30.937Z,98384.56
2022-11-23T21:48:58.662Z,98381.22
2022-11-23T21:51:27.017Z,98384.78
2022-11-23T21:53:54.704Z,98389.03
2022-11-23T21:56:22.077Z,98393.34
2022-11-23T21:58:49.740Z,98398.59
2022-11-23T22:01:17.005Z,98392.94
2022-11-23T22:03:45.879Z,98393.97
2022-11-23T22:06:20.001Z,98397.81
2022-11-23T22:08:52.165Z,98398.66
2022-11-23T22:11:21.799Z,98398.72
2022-11-23T22:13:52.866Z,98399.91
2022-11-23T22:16:21.006Z,98399.69
2022-11-23T22:18:54.019Z,98398.44
2022-11-23T22:21:23.475Z,98397.59
2022-11-23T22:23:51.005Z,98403.00
2022-11-23T22:26:19.006Z,98399.38
2022-11-23T22:28:47.169Z,98397.06
2022-11-23T22:31:15.591Z,98401.31
2022-11-23T22:33:43.171Z,98394.56
2022-11-23T22:36:14.662Z,98401.59
2022-11-23T22:38:42.212Z,98400.81
2022-11-23T22:41:10.286Z,98404.62
2022-11-23T22:43:37.790Z,98405.22
2022-11-23T22:46:09.936Z,98411.56
2022-11-23T22:48:37.724Z,98411.62
2022-11-23T22:51:05.278Z,98411.94
2022-11-23T22:53:33.001Z,98408.94
2022-11-23T22:56:04.689Z,98407.25
2022-11-23T22:58:32.412Z,98406.56
2022-11-23T23:01:06.782Z,98416.47
2022-11-23T23:03:34.481Z,98418.97
2022-11-23T23:06:02.230Z,98423.34
2022-11-23T23:08:29.699Z,98427.31
2022-11-23T23:10:57.300Z,98415.00
2022-11-23T23:13:24.590Z,98428.25
2022-11-23T23:15:59.585Z,98432.88
2022-11-23T23:18:27.237Z,98435.22
2022-11-23T23:21:04.168Z,98430.50
2022-11-23T23:23:33.284Z,98433.69
2022-11-23T23:26:00.517Z,98434.44
2022-11-23T23:28:27.785Z,98434.22
2022-11-23T23:31:01.964Z,98436.69
2022-11-23T23:33:29.773Z,98439.97
2022-11-23T23:35:57.355Z,98437.34
2022-11-23T23:38:27.634Z,98445.84
2022-11-23T23:40:55.689Z,98445.56
2022-11-23T23:43:23.361Z,98444.25
2022-11-23T23:45:50.873Z,98441.03
2022-11-23T23:48:18.339Z,98445.16
2022-11-23T23:50:45.828Z,98453.34
2022-11-23T23:53:13.053Z,98458.88
2022-11-23T23:55:40.313Z,98464.69
2022-11-23T23:58:10.514Z,98463.06
